sensor_id;sensor_type;location;lat;lon;timestamp;P1;durP1;ratioP1;P2;durP2;ratioP2
7142;SDS011;3613;48.902;9.204;2023-07-29T00:02:05;8.93;;;6.30;;
7142;SDS011;3613;48.902;9.204;2023-07-29T00:04:31;12.57;;;6.73;;
7142;SDS011;3613;48.902;9.204;2023-07-29T00:06:59;12.73;;;6.87;;
7142;SDS011;3613;48.902;9.204;2023-07-29T00:09:25;11.17;;;6.97;;
7142;SDS011;3613;48.902;9.204;2023-07-29T00:11:54;11.77;;;6.13;;
7142;SDS011;3613;48.902;9.204;2023-07-29T00:14:20;8.23;;;5.90;;
7142;SDS011;3613;48.902;9.204;2023-07-29T00:16:46;8.23;;;5.73;;
7142;SDS011;3613;48.902;9.204;2023-07-29T00:19:14;13.23;;;6.63;;
7142;SDS011;3613;48.902;9.204;2023-07-29T00:21:40;9.67;;;6.07;;
7142;SDS011;3613;48.902;9.204;2023-07-29T00:24:06;11.53;;;6.63;;
7142;SDS011;3613;48.902;9.204;2023-07-29T00:26:35;11.73;;;7.60;;
7142;SDS011;3613;48.902;9.204;2023-07-29T00:29:01;12.80;;;7.33;;
7142;SDS011;3613;48.902;9.204;2023-07-29T00:31:27;11.43;;;7.27;;
7142;SDS011;3613;48.902;9.204;2023-07-29T00:33:53;16.23;;;8.23;;
7142;SDS011;3613;48.902;9.204;2023-07-29T00:36:23;11.77;;;7.50;;
7142;SDS011;3613;48.902;9.204;2023-07-29T00:38:51;11.50;;;7.13;;
7142;SDS011;3613;48.902;9.204;2023-07-29T00:41:22;8.77;;;7.10;;
7142;SDS011;3613;48.902;9.204;2023-07-29T00:43:48;10.60;;;6.90;;
7142;SDS011;3613;48.902;9.204;2023-07-29T00:46:17;9.63;;;6.27;;
7142;SDS011;3613;48.902;9.204;2023-07-29T00:48:43;10.63;;;7.30;;
7142;SDS011;3613;48.902;9.204;2023-07-29T00:51:09;14.57;;;7.73;;
7142;SDS011;3613;48.902;9.204;2023-07-29T00:53:37;13.17;;;7.80;;
7142;SDS011;3613;48.902;9.204;2023-07-29T00:56:03;12.27;;;6.93;;
7142;SDS011;3613;48.902;9.204;2023-07-29T00:58:33;10.63;;;6.70;;
7142;SDS011;3613;48.902;9.204;2023-07-29T01:01:02;9.97;;;6.67;;
7142;SDS011;3613;48.902;9.204;2023-07-29T01:03:28;9.20;;;6.37;;
7142;SDS011;3613;48.902;9.204;2023-07-29T01:05:59;12.27;;;6.97;;
7142;SDS011;3613;48.902;9.204;2023-07-29T01:15:06;12.73;;;7.13;;
7142;SDS011;3613;48.902;9.204;2023-07-29T01:17:15;9.50;;;6.53;;
7142;SDS011;3613;48.902;9.204;2023-07-29T01:22:31;8.23;;;6.10;;
7142;SDS011;3613;48.902;9.204;2023-07-29T01:24:58;9.70;;;6.20;;
7142;SDS011;3613;48.902;9.204;2023-07-29T01:27:24;10.10;;;6.17;;
7142;SDS011;3613;48.902;9.204;2023-07-29T01:29:51;9.90;;;5.80;;
7142;SDS011;3613;48.902;9.204;2023-07-29T01:32:19;9.40;;;5.70;;
7142;SDS011;3613;48.902;9.204;2023-07-29T01:37:33;9.07;;;5.63;;
7142;SDS011;3613;48.902;9.204;2023-07-29T01:40:00;9.77;;;4.87;;
7142;SDS011;3613;48.902;9.204;2023-07-29T01:42:26;12.97;;;6.77;;
7142;SDS011;3613;48.902;9.204;2023-07-29T01:44:54;8.43;;;5.17;;
7142;SDS011;3613;48.902;9.204;2023-07-29T01:47:22;7.20;;;5.73;;
7142;SDS011;3613;48.902;9.204;2023-07-29T01:49:48;7.20;;;5.27;;
7142;SDS011;3613;48.902;9.204;2023-07-29T01:52:13;6.97;;;4.47;;
7142;SDS011;3613;48.902;9.204;2023-07-29T01:54:39;7.23;;;5.00;;
7142;SDS011;3613;48.902;9.204;2023-07-29T01:57:05;9.10;;;5.00;;
7142;SDS011;3613;48.902;9.204;2023-07-29T01:59:31;8.27;;;4.90;;
7142;SDS011;3613;48.902;9.204;2023-07-29T02:01:59;6.80;;;3.83;;
7142;SDS011;3613;48.902;9.204;2023-07-29T02:04:27;6.77;;;4.10;;
7142;SDS011;3613;48.902;9.204;2023-07-29T02:06:53;5.97;;;3.40;;
7142;SDS011;3613;48.902;9.204;2023-07-29T02:09:21;6.20;;;4.00;;
7142;SDS011;3613;48.902;9.204;2023-07-29T02:11:47;8.07;;;3.60;;
7142;SDS011;3613;48.902;9.204;2023-07-29T02:14:13;6.53;;;3.53;;
7142;SDS011;3613;48.902;9.204;2023-07-29T02:16:39;5.53;;;3.87;;
7142;SDS011;3613;48.902;9.204;2023-07-29T02:19:04;5.87;;;3.73;;
7142;SDS011;3613;48.902;9.204;2023-07-29T02:21:33;7.20;;;4.20;;
7142;SDS011;3613;48.902;9.204;2023-07-29T02:23:59;5.87;;;3.87;;
7142;SDS011;3613;48.902;9.204;2023-07-29T02:26:25;5.20;;;3.43;;
7142;SDS011;3613;48.902;9.204;2023-07-29T02:28:51;7.23;;;4.30;;
7142;SDS011;3613;48.902;9.204;2023-07-29T02:31:23;5.93;;;4.00;;
7142;SDS011;3613;48.902;9.204;2023-07-29T02:33:51;5.57;;;3.90;;
7142;SDS011;3613;48.902;9.204;2023-07-29T02:36:17;5.87;;;4.00;;
7142;SDS011;3613;48.902;9.204;2023-07-29T02:38:43;4.67;;;3.90;;
7142;SDS011;3613;48.902;9.204;2023-07-29T02:41:09;5.87;;;3.80;;
7142;SDS011;3613;48.902;9.204;2023-07-29T02:43:37;5.33;;;3.40;;
7142;SDS011;3613;48.902;9.204;2023-07-29T02:46:03;5.67;;;3.97;;
7142;SDS011;3613;48.902;9.204;2023-07-29T02:48:29;6.30;;;3.63;;
7142;SDS011;3613;48.902;9.204;2023-07-29T02:50:57;5.53;;;4.30;;
7142;SDS011;3613;48.902;9.204;2023-07-29T02:53:23;5.03;;;3.60;;
7142;SDS011;3613;48.902;9.204;2023-07-29T02:55:49;7.00;;;4.07;;
7142;SDS011;3613;48.902;9.204;2023-07-29T02:58:15;5.07;;;4.00;;
7142;SDS011;3613;48.902;9.204;2023-07-29T03:00:43;5.77;;;3.73;;
7142;SDS011;3613;48.902;9.204;2023-07-29T03:03:09;5.90;;;4.07;;
7142;SDS011;3613;48.902;9.204;2023-07-29T03:05:35;5.30;;;4.20;;
7142;SDS011;3613;48.902;9.204;2023-07-29T03:08:05;4.50;;;4.00;;
7142;SDS011;3613;48.902;9.204;2023-07-29T03:10:31;3.90;;;3.50;;
7142;SDS011;3613;48.902;9.204;2023-07-29T03:12:59;4.47;;;3.53;;
7142;SDS011;3613;48.902;9.204;2023-07-29T03:15:26;4.37;;;3.13;;
7142;SDS011;3613;48.902;9.204;2023-07-29T03:17:52;4.37;;;3.00;;
7142;SDS011;3613;48.902;9.204;2023-07-29T03:20:19;5.70;;;3.73;;
7142;SDS011;3613;48.902;9.204;2023-07-29T03:22:45;7.30;;;3.20;;
7142;SDS011;3613;48.902;9.204;2023-07-29T03:25:13;7.10;;;3.50;;
7142;SDS011;3613;48.902;9.204;2023-07-29T03:27:39;4.83;;;3.30;;
7142;SDS011;3613;48.902;9.204;2023-07-29T03:30:08;4.03;;;3.47;;
7142;SDS011;3613;48.902;9.204;2023-07-29T03:32:34;3.83;;;3.27;;
7142;SDS011;3613;48.902;9.204;2023-07-29T03:35:00;5.77;;;3.20;;
7142;SDS011;3613;48.902;9.204;2023-07-29T03:37:25;4.10;;;3.30;;
7142;SDS011;3613;48.902;9.204;2023-07-29T03:39:53;4.50;;;3.13;;
7142;SDS011;3613;48.902;9.204;2023-07-29T03:42:19;5.13;;;3.30;;
7142;SDS011;3613;48.902;9.204;2023-07-29T03:44:45;5.17;;;3.50;;
7142;SDS011;3613;48.902;9.204;2023-07-29T03:47:13;6.27;;;3.07;;
7142;SDS011;3613;48.902;9.204;2023-07-29T03:49:39;4.70;;;3.17;;
7142;SDS011;3613;48.902;9.204;2023-07-29T03:52:05;3.13;;;2.83;;
7142;SDS011;3613;48.902;9.204;2023-07-29T03:54:31;5.07;;;3.30;;
7142;SDS011;3613;48.902;9.204;2023-07-29T03:56:57;3.70;;;3.13;;
7142;SDS011;3613;48.902;9.204;2023-07-29T03:59:23;3.50;;;2.87;;
7142;SDS011;3613;48.902;9.204;2023-07-29T04:01:49;4.50;;;3.20;;
7142;SDS011;3613;48.902;9.204;2023-07-29T04:04:15;4.53;;;3.00;;
7142;SDS011;3613;48.902;9.204;2023-07-29T04:06:42;3.23;;;2.87;;
7142;SDS011;3613;48.902;9.204;2023-07-29T04:09:08;4.13;;;2.83;;
7142;SDS011;3613;48.902;9.204;2023-07-29T04:11:34;5.87;;;3.33;;
7142;SDS011;3613;48.902;9.204;2023-07-29T04:14:02;4.63;;;3.20;;
7142;SDS011;3613;48.902;9.204;2023-07-29T04:16:28;6.30;;;3.10;;
7142;SDS011;3613;48.902;9.204;2023-07-29T04:18:54;4.03;;;3.37;;
7142;SDS011;3613;48.902;9.204;2023-07-29T04:21:20;5.73;;;2.57;;
7142;SDS011;3613;48.902;9.204;2023-07-29T04:23:46;4.60;;;3.10;;
7142;SDS011;3613;48.902;9.204;2023-07-29T04:26:15;5.23;;;3.53;;
7142;SDS011;3613;48.902;9.204;2023-07-29T04:28:43;3.40;;;3.00;;
7142;SDS011;3613;48.902;9.204;2023-07-29T04:31:11;10.63;;;4.90;;
7142;SDS011;3613;48.902;9.204;2023-07-29T04:33:36;4.97;;;2.80;;
7142;SDS011;3613;48.902;9.204;2023-07-29T04:36:04;3.70;;;2.70;;
7142;SDS011;3613;48.902;9.204;2023-07-29T04:38:31;9.77;;;3.70;;
7142;SDS011;3613;48.902;9.204;2023-07-29T04:40:58;6.00;;;3.30;;
7142;SDS011;3613;48.902;9.204;2023-07-29T04:43:26;5.60;;;3.57;;
7142;SDS011;3613;48.902;9.204;2023-07-29T04:45:53;5.33;;;3.20;;
7142;SDS011;3613;48.902;9.204;2023-07-29T04:48:19;6.50;;;3.70;;
7142;SDS011;3613;48.902;9.204;2023-07-29T04:50:45;6.70;;;3.77;;
7142;SDS011;3613;48.902;9.204;2023-07-29T04:53:11;5.37;;;3.47;;
7142;SDS011;3613;48.902;9.204;2023-07-29T04:55:37;6.40;;;3.83;;
7142;SDS011;3613;48.902;9.204;2023-07-29T04:58:02;6.13;;;3.63;;
7142;SDS011;3613;48.902;9.204;2023-07-29T05:00:31;6.50;;;3.40;;
7142;SDS011;3613;48.902;9.204;2023-07-29T05:02:59;10.53;;;4.07;;
7142;SDS011;3613;48.902;9.204;2023-07-29T05:05:26;8.93;;;3.90;;
7142;SDS011;3613;48.902;9.204;2023-07-29T05:07:52;6.17;;;3.70;;
7142;SDS011;3613;48.902;9.204;2023-07-29T05:10:19;5.87;;;3.60;;
7142;SDS011;3613;48.902;9.204;2023-07-29T05:12:45;6.17;;;3.80;;
7142;SDS011;3613;48.902;9.204;2023-07-29T05:15:11;8.17;;;3.80;;
7142;SDS011;3613;48.902;9.204;2023-07-29T05:17:37;6.83;;;4.33;;
7142;SDS011;3613;48.902;9.204;2023-07-29T05:20:08;8.07;;;4.10;;
7142;SDS011;3613;48.902;9.204;2023-07-29T05:22:34;5.73;;;3.57;;
7142;SDS011;3613;48.902;9.204;2023-07-29T05:25:02;5.10;;;3.83;;
7142;SDS011;3613;48.902;9.204;2023-07-29T05:27:28;5.37;;;3.83;;
7142;SDS011;3613;48.902;9.204;2023-07-29T05:29:54;6.47;;;4.57;;
7142;SDS011;3613;48.902;9.204;2023-07-29T05:32:19;4.90;;;3.60;;
7142;SDS011;3613;48.902;9.204;2023-07-29T05:34:45;5.13;;;3.00;;
7142;SDS011;3613;48.902;9.204;2023-07-29T05:37:11;6.43;;;3.57;;
7142;SDS011;3613;48.902;9.204;2023-07-29T05:39:37;5.83;;;3.70;;
7142;SDS011;3613;48.902;9.204;2023-07-29T05:42:06;10.23;;;4.03;;
7142;SDS011;3613;48.902;9.204;2023-07-29T05:44:33;5.10;;;3.53;;
7142;SDS011;3613;48.902;9.204;2023-07-29T05:46:59;5.03;;;3.80;;
7142;SDS011;3613;48.902;9.204;2023-07-29T05:49:24;5.10;;;3.47;;
7142;SDS011;3613;48.902;9.204;2023-07-29T05:51:50;4.60;;;3.50;;
7142;SDS011;3613;48.902;9.204;2023-07-29T05:54:17;5.13;;;3.23;;
7142;SDS011;3613;48.902;9.204;2023-07-29T05:56:44;4.83;;;3.17;;
7142;SDS011;3613;48.902;9.204;2023-07-29T05:59:10;5.10;;;3.60;;
7142;SDS011;3613;48.902;9.204;2023-07-29T06:01:36;3.43;;;3.10;;
7142;SDS011;3613;48.902;9.204;2023-07-29T06:04:01;4.37;;;2.83;;
7142;SDS011;3613;48.902;9.204;2023-07-29T06:06:27;5.10;;;3.20;;
7142;SDS011;3613;48.902;9.204;2023-07-29T06:08:53;4.67;;;3.07;;
7142;SDS011;3613;48.902;9.204;2023-07-29T06:11:19;4.77;;;3.13;;
7142;SDS011;3613;48.902;9.204;2023-07-29T06:13:47;5.40;;;2.67;;
7142;SDS011;3613;48.902;9.204;2023-07-29T06:16:13;5.63;;;3.37;;
7142;SDS011;3613;48.902;9.204;2023-07-29T06:18:38;3.87;;;3.30;;
7142;SDS011;3613;48.902;9.204;2023-07-29T06:21:06;2.77;;;2.37;;
7142;SDS011;3613;48.902;9.204;2023-07-29T06:23:35;3.40;;;2.40;;
7142;SDS011;3613;48.902;9.204;2023-07-29T06:26:01;3.23;;;2.40;;
7142;SDS011;3613;48.902;9.204;2023-07-29T06:28:27;2.53;;;2.30;;
7142;SDS011;3613;48.902;9.204;2023-07-29T06:30:53;4.93;;;4.37;;
7142;SDS011;3613;48.902;9.204;2023-07-29T06:33:19;2.93;;;2.53;;
7142;SDS011;3613;48.902;9.204;2023-07-29T06:35:45;4.30;;;2.80;;
7142;SDS011;3613;48.902;9.204;2023-07-29T06:38:11;2.80;;;2.10;;
7142;SDS011;3613;48.902;9.204;2023-07-29T06:40:36;3.07;;;2.70;;
7142;SDS011;3613;48.902;9.204;2023-07-29T06:43:02;4.57;;;2.73;;
7142;SDS011;3613;48.902;9.204;2023-07-29T06:45:28;4.80;;;2.80;;
7142;SDS011;3613;48.902;9.204;2023-07-29T06:47:54;3.90;;;3.40;;
7142;SDS011;3613;48.902;9.204;2023-07-29T06:50:22;4.00;;;3.27;;
7142;SDS011;3613;48.902;9.204;2023-07-29T06:52:50;3.43;;;3.13;;
7142;SDS011;3613;48.902;9.204;2023-07-29T06:55:16;5.73;;;2.80;;
7142;SDS011;3613;48.902;9.204;2023-07-29T06:57:44;3.37;;;2.63;;
7142;SDS011;3613;48.902;9.204;2023-07-29T07:00:09;4.40;;;2.90;;
7142;SDS011;3613;48.902;9.204;2023-07-29T07:02:35;4.70;;;2.80;;
7142;SDS011;3613;48.902;9.204;2023-07-29T07:05:01;3.20;;;2.63;;
7142;SDS011;3613;48.902;9.204;2023-07-29T07:07:27;3.23;;;2.40;;
7142;SDS011;3613;48.902;9.204;2023-07-29T07:09:55;4.27;;;3.80;;
7142;SDS011;3613;48.902;9.204;2023-07-29T07:12:21;4.20;;;3.20;;
7142;SDS011;3613;48.902;9.204;2023-07-29T07:14:47;4.37;;;3.17;;
7142;SDS011;3613;48.902;9.204;2023-07-29T07:17:15;3.97;;;3.30;;
7142;SDS011;3613;48.902;9.204;2023-07-29T07:19:40;5.07;;;4.40;;
7142;SDS011;3613;48.902;9.204;2023-07-29T07:22:06;6.60;;;5.33;;
7142;SDS011;3613;48.902;9.204;2023-07-29T07:24:32;4.07;;;2.80;;
7142;SDS011;3613;48.902;9.204;2023-07-29T07:27:00;6.57;;;3.57;;
7142;SDS011;3613;48.902;9.204;2023-07-29T07:29:32;7.63;;;5.03;;
7142;SDS011;3613;48.902;9.204;2023-07-29T07:31:58;5.83;;;2.90;;
7142;SDS011;3613;48.902;9.204;2023-07-29T07:34:24;5.30;;;3.33;;
7142;SDS011;3613;48.902;9.204;2023-07-29T07:36:52;6.70;;;3.33;;
7142;SDS011;3613;48.902;9.204;2023-07-29T07:39:18;4.33;;;3.23;;
7142;SDS011;3613;48.902;9.204;2023-07-29T07:41:44;4.30;;;3.27;;
7142;SDS011;3613;48.902;9.204;2023-07-29T07:44:10;5.07;;;3.13;;
7142;SDS011;3613;48.902;9.204;2023-07-29T07:46:40;6.77;;;3.90;;
7142;SDS011;3613;48.902;9.204;2023-07-29T07:49:06;15.20;;;10.97;;
7142;SDS011;3613;48.902;9.204;2023-07-29T07:51:32;4.70;;;4.13;;
7142;SDS011;3613;48.902;9.204;2023-07-29T07:54:01;7.27;;;3.20;;
7142;SDS011;3613;48.902;9.204;2023-07-29T07:56:31;5.00;;;2.70;;
7142;SDS011;3613;48.902;9.204;2023-07-29T07:58:56;5.23;;;2.60;;
7142;SDS011;3613;48.902;9.204;2023-07-29T08:01:22;5.10;;;2.70;;
7142;SDS011;3613;48.902;9.204;2023-07-29T08:03:51;5.17;;;2.80;;
7142;SDS011;3613;48.902;9.204;2023-07-29T08:06:17;3.23;;;2.70;;
7142;SDS011;3613;48.902;9.204;2023-07-29T08:08:42;2.40;;;1.83;;
7142;SDS011;3613;48.902;9.204;2023-07-29T08:11:08;3.60;;;2.07;;
7142;SDS011;3613;48.902;9.204;2023-07-29T08:13:34;3.03;;;1.93;;
7142;SDS011;3613;48.902;9.204;2023-07-29T08:16:00;1.77;;;1.50;;
7142;SDS011;3613;48.902;9.204;2023-07-29T08:18:25;3.47;;;1.77;;
7142;SDS011;3613;48.902;9.204;2023-07-29T08:20:55;1.43;;;1.30;;
7142;SDS011;3613;48.902;9.204;2023-07-29T08:23:25;1.87;;;1.60;;
7142;SDS011;3613;48.902;9.204;2023-07-29T08:25:55;2.10;;;1.70;;
7142;SDS011;3613;48.902;9.204;2023-07-29T08:28:26;1.80;;;1.70;;
7142;SDS011;3613;48.902;9.204;2023-07-29T08:30:55;2.03;;;1.83;;
7142;SDS011;3613;48.902;9.204;2023-07-29T08:33:21;5.50;;;1.80;;
7142;SDS011;3613;48.902;9.204;2023-07-29T08:35:47;2.50;;;1.60;;
7142;SDS011;3613;48.902;9.204;2023-07-29T08:38:12;1.73;;;1.50;;
7142;SDS011;3613;48.902;9.204;2023-07-29T08:40:42;5.30;;;1.70;;
7142;SDS011;3613;48.902;9.204;2023-07-29T08:43:18;1.90;;;1.57;;
7142;SDS011;3613;48.902;9.204;2023-07-29T08:45:47;2.17;;;1.70;;
7142;SDS011;3613;48.902;9.204;2023-07-29T08:48:13;2.40;;;1.87;;
7142;SDS011;3613;48.902;9.204;2023-07-29T08:50:44;2.23;;;1.50;;
7142;SDS011;3613;48.902;9.204;2023-07-29T08:53:10;3.00;;;1.50;;
7142;SDS011;3613;48.902;9.204;2023-07-29T08:55:37;2.60;;;1.30;;
7142;SDS011;3613;48.902;9.204;2023-07-29T08:58:06;2.70;;;1.50;;
7142;SDS011;3613;48.902;9.204;2023-07-29T09:00:34;1.47;;;1.33;;
7142;SDS011;3613;48.902;9.204;2023-07-29T09:03:02;1.50;;;1.40;;
7142;SDS011;3613;48.902;9.204;2023-07-29T09:05:32;2.53;;;1.70;;
7142;SDS011;3613;48.902;9.204;2023-07-29T09:07:58;3.17;;;1.13;;
7142;SDS011;3613;48.902;9.204;2023-07-29T09:10:29;2.63;;;1.60;;
7142;SDS011;3613;48.902;9.204;2023-07-29T09:12:55;3.40;;;1.83;;
7142;SDS011;3613;48.902;9.204;2023-07-29T09:15:30;1.67;;;1.40;;
7142;SDS011;3613;48.902;9.204;2023-07-29T09:17:56;1.90;;;1.60;;
7142;SDS011;3613;48.902;9.204;2023-07-29T09:20:23;1.30;;;1.20;;
7142;SDS011;3613;48.902;9.204;2023-07-29T09:22:50;2.37;;;1.70;;
7142;SDS011;3613;48.902;9.204;2023-07-29T09:25:16;2.77;;;1.90;;
7142;SDS011;3613;48.902;9.204;2023-07-29T09:27:42;2.10;;;1.57;;
7142;SDS011;3613;48.902;9.204;2023-07-29T09:30:15;3.13;;;1.47;;
7142;SDS011;3613;48.902;9.204;2023-07-29T09:32:41;1.70;;;1.60;;
7142;SDS011;3613;48.902;9.204;2023-07-29T09:35:11;2.57;;;1.40;;
7142;SDS011;3613;48.902;9.204;2023-07-29T09:37:37;2.03;;;1.40;;
7142;SDS011;3613;48.902;9.204;2023-07-29T09:40:06;2.73;;;1.40;;
7142;SDS011;3613;48.902;9.204;2023-07-29T09:42:40;2.10;;;1.47;;
7142;SDS011;3613;48.902;9.204;2023-07-29T09:45:18;2.27;;;1.57;;
7142;SDS011;3613;48.902;9.204;2023-07-29T09:47:46;3.70;;;2.00;;
7142;SDS011;3613;48.902;9.204;2023-07-29T09:50:11;1.30;;;1.20;;
7142;SDS011;3613;48.902;9.204;2023-07-29T09:52:40;1.30;;;1.20;;
7142;SDS011;3613;48.902;9.204;2023-07-29T09:55:09;2.30;;;1.90;;
7142;SDS011;3613;48.902;9.204;2023-07-29T09:57:37;2.90;;;2.17;;
7142;SDS011;3613;48.902;9.204;2023-07-29T10:00:04;1.80;;;1.50;;
7142;SDS011;3613;48.902;9.204;2023-07-29T10:02:38;2.63;;;1.40;;
7142;SDS011;3613;48.902;9.204;2023-07-29T10:05:05;3.20;;;1.63;;
7142;SDS011;3613;48.902;9.204;2023-07-29T10:07:35;8.00;;;2.10;;
7142;SDS011;3613;48.902;9.204;2023-07-29T10:10:02;20.07;;;3.37;;
7142;SDS011;3613;48.902;9.204;2023-07-29T10:12:30;13.37;;;3.07;;
7142;SDS011;3613;48.902;9.204;2023-07-29T10:14:58;12.47;;;3.47;;
7142;SDS011;3613;48.902;9.204;2023-07-29T10:17:25;4.37;;;2.60;;
7142;SDS011;3613;48.902;9.204;2023-07-29T10:19:52;3.10;;;2.07;;
7142;SDS011;3613;48.902;9.204;2023-07-29T10:22:24;5.07;;;2.87;;
7142;SDS011;3613;48.902;9.204;2023-07-29T10:24:51;3.53;;;2.10;;
7142;SDS011;3613;48.902;9.204;2023-07-29T10:27:24;3.83;;;2.57;;
7142;SDS011;3613;48.902;9.204;2023-07-29T10:29:51;3.23;;;2.13;;
7142;SDS011;3613;48.902;9.204;2023-07-29T10:32:19;2.80;;;2.10;;
7142;SDS011;3613;48.902;9.204;2023-07-29T10:34:48;3.73;;;2.30;;
7142;SDS011;3613;48.902;9.204;2023-07-29T10:37:14;3.70;;;2.60;;
7142;SDS011;3613;48.902;9.204;2023-07-29T10:39:51;2.93;;;2.03;;
7142;SDS011;3613;48.902;9.204;2023-07-29T10:42:18;2.17;;;1.80;;
7142;SDS011;3613;48.902;9.204;2023-07-29T10:44:50;3.33;;;2.03;;
7142;SDS011;3613;48.902;9.204;2023-07-29T10:47:20;3.13;;;1.50;;
7142;SDS011;3613;48.902;9.204;2023-07-29T10:49:47;1.87;;;1.67;;
7142;SDS011;3613;48.902;9.204;2023-07-29T10:52:15;2.30;;;1.70;;
7142;SDS011;3613;48.902;9.204;2023-07-29T10:54:52;1.53;;;1.40;;
7142;SDS011;3613;48.902;9.204;2023-07-29T10:59:59;1.63;;;1.50;;
7142;SDS011;3613;48.902;9.204;2023-07-29T11:02:31;2.23;;;1.60;;
7142;SDS011;3613;48.902;9.204;2023-07-29T11:04:59;1.60;;;1.40;;
7142;SDS011;3613;48.902;9.204;2023-07-29T11:07:44;1.87;;;1.23;;
7142;SDS011;3613;48.902;9.204;2023-07-29T11:10:11;2.83;;;1.53;;
7142;SDS011;3613;48.902;9.204;2023-07-29T11:12:47;1.50;;;1.30;;
7142;SDS011;3613;48.902;9.204;2023-07-29T11:15:16;1.50;;;1.17;;
7142;SDS011;3613;48.902;9.204;2023-07-29T11:20:11;1.10;;;0.90;;
7142;SDS011;3613;48.902;9.204;2023-07-29T11:22:37;2.13;;;1.10;;
7142;SDS011;3613;48.902;9.204;2023-07-29T11:25:06;1.53;;;1.30;;
7142;SDS011;3613;48.902;9.204;2023-07-29T11:27:34;1.13;;;1.03;;
7142;SDS011;3613;48.902;9.204;2023-07-29T11:30:20;2.77;;;1.27;;
7142;SDS011;3613;48.902;9.204;2023-07-29T11:33:03;1.20;;;1.10;;
7142;SDS011;3613;48.902;9.204;2023-07-29T11:35:32;1.27;;;0.90;;
7142;SDS011;3613;48.902;9.204;2023-07-29T11:37:59;1.07;;;0.97;;
7142;SDS011;3613;48.902;9.204;2023-07-29T11:40:25;1.70;;;1.30;;
7142;SDS011;3613;48.902;9.204;2023-07-29T11:42:51;1.53;;;1.20;;
7142;SDS011;3613;48.902;9.204;2023-07-29T11:45:18;1.33;;;1.23;;
7142;SDS011;3613;48.902;9.204;2023-07-29T11:47:45;2.10;;;1.20;;
7142;SDS011;3613;48.902;9.204;2023-07-29T11:50:11;1.47;;;1.37;;
7142;SDS011;3613;48.902;9.204;2023-07-29T11:52:44;1.97;;;1.37;;
7142;SDS011;3613;48.902;9.204;2023-07-29T11:55:11;2.37;;;1.40;;
7142;SDS011;3613;48.902;9.204;2023-07-29T11:57:39;1.40;;;1.20;;
7142;SDS011;3613;48.902;9.204;2023-07-29T12:00:06;1.50;;;1.37;;
7142;SDS011;3613;48.902;9.204;2023-07-29T12:02:36;1.90;;;1.60;;
7142;SDS011;3613;48.902;9.204;2023-07-29T12:05:04;1.40;;;1.27;;
7142;SDS011;3613;48.902;9.204;2023-07-29T12:07:30;2.43;;;1.37;;
7142;SDS011;3613;48.902;9.204;2023-07-29T12:09:58;1.37;;;1.27;;
7142;SDS011;3613;48.902;9.204;2023-07-29T12:12:24;1.87;;;1.40;;
7142;SDS011;3613;48.902;9.204;2023-07-29T12:14:50;3.27;;;1.37;;
7142;SDS011;3613;48.902;9.204;2023-07-29T12:17:16;1.80;;;1.40;;
7142;SDS011;3613;48.902;9.204;2023-07-29T12:19:45;2.70;;;1.60;;
7142;SDS011;3613;48.902;9.204;2023-07-29T12:22:17;2.70;;;1.77;;
7142;SDS011;3613;48.902;9.204;2023-07-29T12:24:43;2.00;;;1.70;;
7142;SDS011;3613;48.902;9.204;2023-07-29T12:27:10;3.30;;;1.83;;
7142;SDS011;3613;48.902;9.204;2023-07-29T12:29:41;1.87;;;1.50;;
7142;SDS011;3613;48.902;9.204;2023-07-29T12:32:08;1.90;;;1.70;;
7142;SDS011;3613;48.902;9.204;2023-07-29T12:34:34;3.20;;;1.63;;
7142;SDS011;3613;48.902;9.204;2023-07-29T12:37:01;1.93;;;1.73;;
7142;SDS011;3613;48.902;9.204;2023-07-29T12:39:29;2.10;;;1.90;;
7142;SDS011;3613;48.902;9.204;2023-07-29T12:41:59;2.00;;;1.80;;
7142;SDS011;3613;48.902;9.204;2023-07-29T12:44:27;1.80;;;1.50;;
7142;SDS011;3613;48.902;9.204;2023-07-29T12:46:55;2.67;;;1.90;;
7142;SDS011;3613;48.902;9.204;2023-07-29T12:49:23;2.00;;;1.80;;
7142;SDS011;3613;48.902;9.204;2023-07-29T12:51:50;1.67;;;1.50;;
7142;SDS011;3613;48.902;9.204;2023-07-29T12:54:16;1.60;;;1.50;;
7142;SDS011;3613;48.902;9.204;2023-07-29T12:56:44;3.77;;;1.87;;
7142;SDS011;3613;48.902;9.204;2023-07-29T12:59:10;4.57;;;1.70;;
7142;SDS011;3613;48.902;9.204;2023-07-29T13:01:40;1.93;;;1.83;;
7142;SDS011;3613;48.902;9.204;2023-07-29T13:04:06;2.72;;;1.98;;
7142;SDS011;3613;48.902;9.204;2023-07-29T13:06:32;2.33;;;1.98;;
7142;SDS011;3613;48.902;9.204;2023-07-29T13:08:58;1.98;;;1.52;;
7142;SDS011;3613;48.902;9.204;2023-07-29T13:11:23;1.83;;;1.73;;
7142;SDS011;3613;48.902;9.204;2023-07-29T13:13:53;2.10;;;1.73;;
7142;SDS011;3613;48.902;9.204;2023-07-29T13:16:19;2.22;;;1.88;;
7142;SDS011;3613;48.902;9.204;2023-07-29T13:18:45;2.17;;;1.92;;
7142;SDS011;3613;48.902;9.204;2023-07-29T13:21:11;1.70;;;1.60;;
7142;SDS011;3613;48.902;9.204;2023-07-29T13:23:36;1.67;;;1.58;;
7142;SDS011;3613;48.902;9.204;2023-07-29T13:26:02;1.90;;;1.80;;
7142;SDS011;3613;48.902;9.204;2023-07-29T13:28:28;2.75;;;1.90;;
7142;SDS011;3613;48.902;9.204;2023-07-29T13:30:56;2.03;;;1.52;;
7142;SDS011;3613;48.902;9.204;2023-07-29T13:33:22;4.18;;;1.98;;
7142;SDS011;3613;48.902;9.204;2023-07-29T13:35:48;3.05;;;1.70;;
7142;SDS011;3613;48.902;9.204;2023-07-29T13:38:13;2.67;;;1.88;;
7142;SDS011;3613;48.902;9.204;2023-07-29T13:40:41;4.07;;;2.10;;
7142;SDS011;3613;48.902;9.204;2023-07-29T13:43:07;3.30;;;1.87;;
7142;SDS011;3613;48.902;9.204;2023-07-29T13:45:34;3.20;;;1.70;;
7142;SDS011;3613;48.902;9.204;2023-07-29T13:48:00;3.03;;;1.87;;
7142;SDS011;3613;48.902;9.204;2023-07-29T13:50:25;2.23;;;1.60;;
7142;SDS011;3613;48.902;9.204;2023-07-29T13:52:51;2.50;;;2.00;;
7142;SDS011;3613;48.902;9.204;2023-07-29T13:55:17;2.37;;;1.83;;
7142;SDS011;3613;48.902;9.204;2023-07-29T13:57:43;2.63;;;2.10;;
7142;SDS011;3613;48.902;9.204;2023-07-29T14:00:08;3.97;;;2.50;;
7142;SDS011;3613;48.902;9.204;2023-07-29T14:02:34;3.43;;;1.80;;
7142;SDS011;3613;48.902;9.204;2023-07-29T14:05:00;2.93;;;1.63;;
7142;SDS011;3613;48.902;9.204;2023-07-29T14:07:28;2.17;;;1.77;;
7142;SDS011;3613;48.902;9.204;2023-07-29T14:09:54;1.93;;;1.57;;
7142;SDS011;3613;48.902;9.204;2023-07-29T14:12:22;2.57;;;1.70;;
7142;SDS011;3613;48.902;9.204;2023-07-29T14:14:48;2.73;;;2.00;;
7142;SDS011;3613;48.902;9.204;2023-07-29T14:17:17;2.00;;;1.80;;
7142;SDS011;3613;48.902;9.204;2023-07-29T14:19:45;3.40;;;1.70;;
7142;SDS011;3613;48.902;9.204;2023-07-29T14:22:10;2.93;;;1.93;;
7142;SDS011;3613;48.902;9.204;2023-07-29T14:24:38;1.73;;;1.63;;
7142;SDS011;3613;48.902;9.204;2023-07-29T14:27:06;4.37;;;2.20;;
7142;SDS011;3613;48.902;9.204;2023-07-29T14:29:32;2.90;;;2.30;;
7142;SDS011;3613;48.902;9.204;2023-07-29T14:31:58;3.13;;;2.00;;
7142;SDS011;3613;48.902;9.204;2023-07-29T14:34:26;1.63;;;1.50;;
7142;SDS011;3613;48.902;9.204;2023-07-29T14:36:54;4.77;;;1.70;;
7142;SDS011;3613;48.902;9.204;2023-07-29T14:39:20;2.20;;;2.00;;
7142;SDS011;3613;48.902;9.204;2023-07-29T14:41:45;2.00;;;1.80;;
7142;SDS011;3613;48.902;9.204;2023-07-29T14:44:13;2.80;;;1.80;;
7142;SDS011;3613;48.902;9.204;2023-07-29T14:46:39;4.30;;;1.80;;
7142;SDS011;3613;48.902;9.204;2023-07-29T14:49:08;1.77;;;1.67;;
7142;SDS011;3613;48.902;9.204;2023-07-29T14:51:34;1.77;;;1.67;;
7142;SDS011;3613;48.902;9.204;2023-07-29T14:54:00;2.07;;;1.83;;
7142;SDS011;3613;48.902;9.204;2023-07-29T14:56:26;3.17;;;1.80;;
7142;SDS011;3613;48.902;9.204;2023-07-29T14:58:51;2.43;;;1.90;;
7142;SDS011;3613;48.902;9.204;2023-07-29T15:01:17;4.20;;;1.80;;
7142;SDS011;3613;48.902;9.204;2023-07-29T15:03:43;4.73;;;1.87;;
7142;SDS011;3613;48.902;9.204;2023-07-29T15:06:09;2.97;;;1.80;;
7142;SDS011;3613;48.902;9.204;2023-07-29T15:08:38;5.47;;;2.50;;
7142;SDS011;3613;48.902;9.204;2023-07-29T15:11:03;2.97;;;2.13;;
7142;SDS011;3613;48.902;9.204;2023-07-29T15:13:29;2.63;;;1.90;;
7142;SDS011;3613;48.902;9.204;2023-07-29T15:15:55;3.07;;;2.10;;
7142;SDS011;3613;48.902;9.204;2023-07-29T15:18:21;2.10;;;1.80;;
7142;SDS011;3613;48.902;9.204;2023-07-29T15:20:47;3.20;;;2.17;;
7142;SDS011;3613;48.902;9.204;2023-07-29T15:23:16;3.60;;;2.30;;
7142;SDS011;3613;48.902;9.204;2023-07-29T15:25:41;2.77;;;2.03;;
7142;SDS011;3613;48.902;9.204;2023-07-29T15:28:07;2.50;;;2.13;;
7142;SDS011;3613;48.902;9.204;2023-07-29T15:30:35;1.80;;;1.60;;
7142;SDS011;3613;48.902;9.204;2023-07-29T15:33:02;2.27;;;2.07;;